Terminal Aerodrome Forecast
Issued by NWS

Home | Current Version | Previous Version | Graphics & Text | Print | Product List | Glossary On
Versions: 1 2 3 4 5 6 7 8 9 10 11 12 13 14 15 16 17 18
261
FTUS43 KIWX 151138
TAFSBN
TAF
KSBN 151138Z 1512/1612 18012KT P6SM VCSH OVC060
     FM151400 19013KT 4SM -SHRA BR OVC015
     FM152200 26012KT P6SM OVC015
     FM160100 28015KT P6SM OVC025=

USA.gov is the U.S. government's official web portal to all federal, state and local government web resources and services.